createdAt,value
2019-04-10T00:00:44.402Z,92560.42
2019-04-10T00:03:25.899Z,92554.20
2019-04-10T00:05:44.510Z,92545.88
2019-04-10T00:08:13.007Z,92553.90
2019-04-10T00:10:41.270Z,92546.08
2019-04-10T00:13:10.088Z,92550.80
2019-04-10T00:15:40.280Z,92550.28
2019-04-10T00:18:09.491Z,92547.72
2019-04-10T00:20:38.197Z,92542.52
2019-04-10T00:23:08.926Z,92545.92
2019-04-10T00:25:37.404Z,92549.59
2019-04-10T00:28:05.685Z,92543.88
2019-04-10T00:30:34.152Z,92537.87
2019-04-10T00:33:02.674Z,92538.43
2019-04-10T00:35:31.685Z,92534.27
2019-04-10T00:38:00.241Z,92537.94
2019-04-10T00:40:28.624Z,92533.77
2019-04-10T00:42:58.612Z,92533.31
2019-04-10T00:45:27.212Z,92532.56
2019-04-10T00:47:55.580Z,92533.33
2019-04-10T00:50:23.915Z,92535.94
2019-04-10T00:52:52.604Z,92530.27
2019-04-10T00:55:21.795Z,92534.70
2019-04-10T00:57:50.169Z,92533.69
2019-04-10T01:00:19.125Z,92522.06
2019-04-10T01:02:47.609Z,92536.56
2019-04-10T01:05:20.918Z,92534.25
2019-04-10T01:07:49.173Z,92535.26
2019-04-10T01:10:17.841Z,92533.45
2019-04-10T01:12:46.252Z,92529.84
2019-04-10T01:15:14.527Z,92521.21
2019-04-10T01:17:42.854Z,92522.56
2019-04-10T01:20:11.350Z,92523.08
2019-04-10T01:22:39.662Z,92525.44
2019-04-10T01:25:08.280Z,92518.42
2019-04-10T01:27:36.637Z,92521.77
2019-04-10T01:30:07.106Z,92511.34
2019-04-10T01:32:36.378Z,92515.45
2019-04-10T01:35:05.978Z,92514.69
2019-04-10T01:37:46.666Z,92514.64
2019-04-10T01:40:06.685Z,92510.22
2019-04-10T01:42:35.033Z,92501.65
2019-04-10T01:45:04.942Z,92504.57
2019-04-10T01:47:33.352Z,92505.11
2019-04-10T01:50:02.311Z,92502.52
2019-04-10T01:52:31.155Z,92503.27
2019-04-10T01:54:59.821Z,92498.34
2019-04-10T01:57:28.466Z,92494.70
2019-04-10T01:59:56.794Z,92499.36
2019-04-10T02:02:35.587Z,92497.31
2019-04-10T02:05:04.510Z,92493.94
2019-04-10T02:07:34.062Z,92496.01
2019-04-10T02:10:03.581Z,92490.05
2019-04-10T02:12:31.946Z,92494.20
2019-04-10T02:15:00.681Z,92490.79
2019-04-10T02:17:29.014Z,92491.89
2019-04-10T02:19:57.293Z,92486.63
2019-04-10T02:22:26.561Z,92481.71
2019-04-10T02:24:55.585Z,92483.83
2019-04-10T02:27:24.554Z,92476.02
2019-04-10T02:29:52.813Z,92481.28
2019-04-10T02:32:21.294Z,92473.02
2019-04-10T02:34:50.700Z,92476.68
2019-04-10T02:37:19.380Z,92474.07
2019-04-10T02:39:52.147Z,92469.42
2019-04-10T02:42:18.615Z,92472.02
2019-04-10T02:44:48.342Z,92472.27
2019-04-10T02:47:19.050Z,92475.14
2019-04-10T02:49:48.733Z,92470.22
2019-04-10T02:52:17.140Z,92471.22
2019-04-10T02:54:45.995Z,92471.23
2019-04-10T02:57:14.394Z,92477.42
2019-04-10T02:59:45.227Z,92472.16
2019-04-10T03:02:14.074Z,92473.66
2019-04-10T03:04:42.565Z,92472.53
2019-04-10T03:07:11.526Z,92473.09
2019-04-10T03:09:52.863Z,92478.69
2019-04-10T03:12:10.987Z,92482.16
2019-04-10T03:14:42.949Z,92476.13
2019-04-10T03:17:10.160Z,92475.38
2019-04-10T03:19:38.493Z,92477.17
2019-04-10T03:22:07.883Z,92477.48
2019-04-10T03:24:36.802Z,92477.19
2019-04-10T03:27:05.817Z,92474.56
2019-04-10T03:29:34.189Z,92467.80
2019-04-10T03:32:05.045Z,92467.38
2019-04-10T03:34:38.373Z,92467.88
2019-04-10T03:37:04.457Z,92471.78
2019-04-10T03:39:35.627Z,92472.02
2019-04-10T03:42:04.286Z,92469.61
2019-04-10T03:44:32.717Z,92469.68
2019-04-10T03:47:00.998Z,92469.93
2019-04-10T03:49:29.707Z,92466.27
2019-04-10T03:51:58.140Z,92467.62
2019-04-10T03:54:26.540Z,92476.56
2019-04-10T03:56:56.158Z,92474.81
2019-04-10T03:59:24.591Z,92473.27
2019-04-10T04:01:53.447Z,92481.02
2019-04-10T04:04:21.744Z,92475.45
2019-04-10T04:06:50.295Z,92477.61
2019-04-10T04:09:19.530Z,92481.45
2019-04-10T04:11:48.211Z,92478.53
2019-04-10T04:14:17.002Z,92478.73
2019-04-10T04:16:47.052Z,92478.99
2019-04-10T04:19:15.733Z,92474.52
2019-04-10T04:21:44.945Z,92479.66
2019-04-10T04:24:13.204Z,92473.66
2019-04-10T04:26:41.623Z,92472.08
2019-04-10T04:29:09.981Z,92475.08
2019-04-10T04:31:38.359Z,92477.57
2019-04-10T04:34:06.649Z,92477.73
2019-04-10T04:36:35.260Z,92479.78
2019-04-10T04:39:17.970Z,92482.33
2019-04-10T04:41:35.922Z,92475.19
2019-04-10T04:44:04.725Z,92471.73
2019-04-10T04:46:34.516Z,92478.94
2019-04-10T04:49:02.932Z,92480.79
2019-04-10T04:51:31.202Z,92481.15
2019-04-10T04:53:59.521Z,92483.64
2019-04-10T04:56:28.197Z,92482.09
2019-04-10T04:58:56.577Z,92481.22
2019-04-10T05:01:24.850Z,92488.41
2019-04-10T05:03:54.850Z,92484.20
2019-04-10T05:06:24.269Z,92483.02
2019-04-10T05:08:52.768Z,92485.75
2019-04-10T05:11:20.967Z,92493.09
2019-04-10T05:13:49.335Z,92495.06
2019-04-10T05:16:18.635Z,92490.48
2019-04-10T05:18:47.719Z,92495.06
2019-04-10T05:21:17.091Z,92496.11
2019-04-10T05:23:45.579Z,92495.17
2019-04-10T05:26:14.411Z,92501.39
2019-04-10T05:28:43.018Z,92495.59
2019-04-10T05:31:11.274Z,92502.25
2019-04-10T05:33:41.112Z,92496.64
2019-04-10T05:36:10.089Z,92496.58
2019-04-10T05:38:38.430Z,92495.45
2019-04-10T05:41:07.158Z,92504.03
2019-04-10T05:43:36.240Z,92503.08
2019-04-10T05:46:04.896Z,92501.09
2019-04-10T05:48:35.635Z,92509.48
2019-04-10T05:51:06.396Z,92508.77
2019-04-10T05:53:34.542Z,92510.48
2019-04-10T05:56:03.520Z,92507.47
2019-04-10T05:58:31.888Z,92507.34
2019-04-10T06:01:02.013Z,92508.38
2019-04-10T06:03:30.392Z,92515.06
2019-04-10T06:06:00.986Z,92516.45
2019-04-10T06:08:29.486Z,92517.53
2019-04-10T06:10:58.208Z,92519.88
2019-04-10T06:13:27.597Z,92516.45
2019-04-10T06:15:56.104Z,92519.41
2019-04-10T06:18:24.367Z,92519.48
2019-04-10T06:20:52.622Z,92514.70
2019-04-10T06:23:20.963Z,92518.69
2019-04-10T06:25:49.875Z,92512.41
2019-04-10T06:28:18.253Z,92516.73
2019-04-10T06:30:46.536Z,92506.52
2019-04-10T06:33:15.811Z,92505.83
2019-04-10T06:35:44.748Z,92510.17
2019-04-10T06:38:13.219Z,92501.31
2019-04-10T06:40:41.956Z,92507.59
2019-04-10T06:43:10.457Z,92509.08
2019-04-10T06:45:39.839Z,92500.47
2019-04-10T06:48:08.652Z,92503.98
2019-04-10T06:50:37.351Z,92505.44
2019-04-10T06:53:06.320Z,92510.36
2019-04-10T06:55:34.909Z,92510.98
2019-04-10T06:58:03.288Z,92507.96
2019-04-10T07:00:32.758Z,92507.44
2019-04-10T07:03:01.176Z,92515.70
2019-04-10T07:05:37.970Z,92513.84
2019-04-10T07:08:10.007Z,92512.16
2019-04-10T07:10:44.783Z,92508.30
2019-04-10T07:13:05.161Z,92509.84
2019-04-10T07:15:30.577Z,92510.21
2019-04-10T07:17:58.911Z,92509.27
2019-04-10T07:20:27.168Z,92508.33
2019-04-10T07:22:57.020Z,92513.38
2019-04-10T07:25:25.783Z,92515.26
2019-04-10T07:27:54.410Z,92516.81
2019-04-10T07:30:26.104Z,92516.14
2019-04-10T07:32:53.108Z,92510.58
2019-04-10T07:35:21.932Z,92509.50
2019-04-10T07:37:54.356Z,92516.37
2019-04-10T07:40:20.746Z,92520.78
2019-04-10T07:42:49.117Z,92521.81
2019-04-10T07:45:17.381Z,92522.13
2019-04-10T07:47:46.248Z,92520.07
2019-04-10T07:50:14.759Z,92521.41
2019-04-10T07:52:44.097Z,92516.84
2019-04-10T07:55:12.824Z,92513.05
2019-04-10T07:57:44.691Z,92512.83
2019-04-10T08:00:13.423Z,92515.86
2019-04-10T08:02:42.760Z,92521.86
2019-04-10T08:05:12.276Z,92517.00
2019-04-10T08:07:40.731Z,92519.67
2019-04-10T08:10:10.023Z,92516.02
2019-04-10T08:12:45.927Z,92516.96
2019-04-10T08:15:09.158Z,92521.37
2019-04-10T08:17:37.543Z,92523.84
2019-04-10T08:20:07.806Z,92521.60
2019-04-10T08:22:37.163Z,92523.06
2019-04-10T08:25:06.841Z,92519.72
2019-04-10T08:27:36.238Z,92523.97
2019-04-10T08:30:05.973Z,92518.94
2019-04-10T08:32:48.249Z,92531.22
2019-04-10T08:35:07.002Z,92525.83
2019-04-10T08:37:35.398Z,92532.91
2019-04-10T08:40:05.444Z,92532.39
2019-04-10T08:42:33.726Z,92534.08
2019-04-10T08:45:02.991Z,92534.98
2019-04-10T08:47:31.433Z,92535.01
2019-04-10T08:49:59.729Z,92535.80
2019-04-10T08:52:28.395Z,92535.77
2019-04-10T08:54:57.498Z,92535.37
2019-04-10T08:57:25.799Z,92538.13
2019-04-10T08:59:54.205Z,92538.11
2019-04-10T09:02:22.529Z,92538.61
2019-04-10T09:04:50.806Z,92544.99
2019-04-10T09:07:20.000Z,92543.69
2019-04-10T09:09:48.301Z,92547.56
2019-04-10T09:12:17.758Z,92541.34
2019-04-10T09:14:46.144Z,92543.97
2019-04-10T09:17:15.364Z,92544.05
2019-04-10T09:19:44.356Z,92543.61
2019-04-10T09:22:12.735Z,92541.61
2019-04-10T09:24:41.005Z,92546.61
2019-04-10T09:27:09.286Z,92548.95
2019-04-10T09:29:38.256Z,92539.65
2019-04-10T09:32:06.623Z,92540.74
2019-04-10T09:34:35.990Z,92541.68
2019-04-10T09:37:04.305Z,92545.76
2019-04-10T09:39:33.521Z,92542.99
2019-04-10T09:42:03.246Z,92543.70
2019-04-10T09:44:32.616Z,92543.20
2019-04-10T09:47:12.229Z,92538.85
2019-04-10T09:49:43.674Z,92540.31
2019-04-10T09:52:10.318Z,92541.85
2019-04-10T09:54:38.729Z,92544.73
2019-04-10T09:57:07.064Z,92546.33
2019-04-10T09:59:36.840Z,92548.27
2019-04-10T10:02:07.088Z,92551.58
2019-04-10T10:04:35.566Z,92548.83
2019-04-10T10:07:04.369Z,92551.05
2019-04-10T10:09:32.624Z,92551.66
2019-04-10T10:12:01.101Z,92552.19
2019-04-10T10:14:31.931Z,92549.56
2019-04-10T10:17:00.158Z,92550.49
2019-04-10T10:19:28.498Z,92549.88
2019-04-10T10:21:56.861Z,92554.52
2019-04-10T10:24:25.078Z,92550.82
2019-04-10T10:26:54.046Z,92557.91
2019-04-10T10:29:22.323Z,92557.53
2019-04-10T10:31:52.254Z,92561.19
2019-04-10T10:34:21.279Z,92553.95
2019-04-10T10:36:52.842Z,92555.29
2019-04-10T10:39:20.969Z,92564.61
2019-04-10T10:41:49.055Z,92557.50
2019-04-10T10:44:17.425Z,92558.20
2019-04-10T10:46:45.677Z,92560.52
2019-04-10T10:49:15.894Z,92567.23
2019-04-10T10:51:44.693Z,92568.34
2019-04-10T10:54:13.087Z,92567.11
2019-04-10T10:56:42.600Z,92567.48
2019-04-10T10:59:11.314Z,92567.61
2019-04-10T11:01:40.706Z,92557.16
2019-04-10T11:04:08.905Z,92557.16
2019-04-10T11:06:50.594Z,92567.33
2019-04-10T11:09:10.226Z,92578.33
2019-04-10T11:11:38.981Z,92572.89
2019-04-10T11:14:07.617Z,92576.78
2019-04-10T11:16:36.606Z,92578.33
2019-04-10T11:19:06.705Z,92579.45
2019-04-10T11:21:35.360Z,92578.21
2019-04-10T11:24:03.665Z,92575.90
2019-04-10T11:26:32.166Z,92577.26
2019-04-10T11:29:01.556Z,92576.62
2019-04-10T11:31:31.362Z,92581.45
2019-04-10T11:34:00.144Z,92579.20
2019-04-10T11:36:28.406Z,92580.52
2019-04-10T11:39:09.103Z,92585.59
2019-04-10T11:41:29.491Z,92583.13
2019-04-10T11:43:57.942Z,92589.32
2019-04-10T11:46:31.014Z,92579.52
2019-04-10T11:48:56.391Z,92585.81
2019-04-10T11:51:29.677Z,92588.34
2019-04-10T11:53:56.948Z,92584.63
2019-04-10T11:56:26.821Z,92592.08
2019-04-10T11:58:56.881Z,92590.59
2019-04-10T12:01:25.613Z,92599.64
2019-04-10T12:03:56.025Z,92598.26
2019-04-10T12:06:25.274Z,92595.95
2019-04-10T12:09:13.250Z,92601.64
2019-04-10T12:11:23.230Z,92602.23
2019-04-10T12:13:51.523Z,92599.75
2019-04-10T12:16:20.809Z,92611.16
2019-04-10T12:18:48.911Z,92602.84
2019-04-10T12:21:17.742Z,92610.22
2019-04-10T12:23:47.262Z,92609.19
2019-04-10T12:26:15.874Z,92608.53
2019-04-10T12:28:44.413Z,92606.09
2019-04-10T12:31:12.764Z,92612.29
2019-04-10T12:33:41.064Z,92603.06
2019-04-10T12:36:10.592Z,92608.77
2019-04-10T12:38:39.531Z,92615.91
2019-04-10T12:41:08.844Z,92617.80
2019-04-10T12:43:37.200Z,92610.95
2019-04-10T12:46:05.569Z,92610.25
2019-04-10T12:48:34.729Z,92612.91
2019-04-10T12:51:03.777Z,92611.08
2019-04-10T12:53:32.051Z,92616.84
2019-04-10T12:56:00.392Z,92609.88
2019-04-10T12:58:28.927Z,92613.25
2019-04-10T13:00:58.387Z,92613.32
2019-04-10T13:03:27.310Z,92616.45
2019-04-10T13:05:55.710Z,92616.52
2019-04-10T13:08:31.183Z,92618.72
2019-04-10T13:10:54.264Z,92616.13
2019-04-10T13:13:27.493Z,92619.09
2019-04-10T13:15:56.379Z,92618.02
2019-04-10T13:18:24.761Z,92619.64
2019-04-10T13:20:53.696Z,92618.67
2019-04-10T13:23:22.467Z,92622.66
2019-04-10T13:25:59.712Z,92623.88
2019-04-10T13:28:20.896Z,92625.89
2019-04-10T13:30:53.859Z,92627.92
2019-04-10T13:33:20.461Z,92622.84
2019-04-10T13:35:49.152Z,92628.98
2019-04-10T13:38:24.054Z,92627.78
2019-04-10T13:40:48.081Z,92627.78
2019-04-10T13:43:17.993Z,92623.95
2019-04-10T13:45:46.510Z,92614.71
2019-04-10T13:48:14.764Z,92630.63
2019-04-10T13:50:43.215Z,92633.06
2019-04-10T13:53:11.856Z,92627.41
2019-04-10T13:55:40.288Z,92626.13
2019-04-10T13:58:08.855Z,92626.62
2019-04-10T14:00:40.548Z,92625.65
2019-04-10T14:03:08.845Z,92631.61
2019-04-10T14:05:37.365Z,92631.00
2019-04-10T14:08:06.173Z,92631.77
2019-04-10T14:10:35.313Z,92634.11
2019-04-10T14:13:03.766Z,92634.62
2019-04-10T14:15:32.020Z,92636.48
2019-04-10T14:18:00.365Z,92637.39
2019-04-10T14:20:29.033Z,92639.03
2019-04-10T14:23:04.484Z,92638.48
2019-04-10T14:25:38.315Z,92640.73
2019-04-10T14:28:07.071Z,92639.78
2019-04-10T14:30:37.798Z,92647.03
2019-04-10T14:33:07.272Z,92641.06
2019-04-10T14:35:35.662Z,92645.72
2019-04-10T14:38:04.847Z,92642.52
2019-04-10T14:40:33.780Z,92644.31
2019-04-10T14:43:01.424Z,92649.16
2019-04-10T14:45:29.769Z,92648.52
2019-04-10T14:47:58.276Z,92653.23
2019-04-10T14:50:26.624Z,92651.55
2019-04-10T14:52:54.902Z,92648.91
2019-04-10T14:55:24.069Z,92647.75
2019-04-10T14:57:53.128Z,92646.93
2019-04-10T15:00:39.200Z,92649.55
2019-04-10T15:03:08.509Z,92654.73
2019-04-10T15:05:45.520Z,92652.78
2019-04-10T15:08:09.151Z,92664.31
2019-04-10T15:10:37.456Z,92654.64
2019-04-10T15:13:09.951Z,92654.09
2019-04-10T15:15:36.593Z,92656.19
2019-04-10T15:18:04.948Z,92654.33
2019-04-10T15:20:33.487Z,92656.86
2019-04-10T15:23:02.839Z,92657.53
2019-04-10T15:25:31.255Z,92661.52
2019-04-10T15:28:00.166Z,92660.45
2019-04-10T15:30:28.693Z,92662.98
2019-04-10T15:32:56.955Z,92663.98
2019-04-10T15:35:26.518Z,92659.88
2019-04-10T15:37:55.689Z,92663.95
2019-04-10T15:40:25.745Z,92665.05
2019-04-10T15:42:54.570Z,92665.11
2019-04-10T15:45:24.442Z,92668.25
2019-04-10T15:47:56.834Z,92665.84
2019-04-10T15:50:22.729Z,92661.37
2019-04-10T15:52:51.572Z,92665.93
2019-04-10T15:55:19.843Z,92665.44
2019-04-10T15:57:53.776Z,92670.44
2019-04-10T16:00:19.134Z,92665.84
2019-04-10T16:02:47.419Z,92669.22
2019-04-10T16:05:15.746Z,92665.78
2019-04-10T16:07:44.820Z,92673.39
2019-04-10T16:10:30.754Z,92671.84
2019-04-10T16:13:00.768Z,92672.41
2019-04-10T16:15:30.699Z,92673.23
2019-04-10T16:18:09.546Z,92676.34
2019-04-10T16:20:38.928Z,92680.56
2019-04-10T16:23:09.981Z,92675.73
2019-04-10T16:25:40.411Z,92682.21
2019-04-10T16:28:08.652Z,92681.45
2019-04-10T16:30:37.140Z,92683.82
2019-04-10T16:33:05.412Z,92681.91
2019-04-10T16:35:35.355Z,92682.16
2019-04-10T16:38:05.145Z,92688.20
2019-04-10T16:40:36.147Z,92687.34
2019-04-10T16:43:05.952Z,92689.47
2019-04-10T16:45:34.863Z,92686.31
2019-04-10T16:48:03.238Z,92682.39
2019-04-10T16:50:31.588Z,92691.84
2019-04-10T16:52:59.851Z,92693.41
2019-04-10T16:55:29.071Z,92692.12
2019-04-10T16:57:57.367Z,92693.98
2019-04-10T17:00:26.931Z,92693.24
2019-04-10T17:02:56.540Z,92693.43
2019-04-10T17:05:24.918Z,92701.00
2019-04-10T17:07:53.187Z,92702.80
2019-04-10T17:10:24.393Z,92703.80
2019-04-10T17:12:52.002Z,92703.05
2019-04-10T17:15:20.242Z,92704.88
2019-04-10T17:17:48.511Z,92704.59
2019-04-10T17:20:17.747Z,92706.73
2019-04-10T17:22:49.216Z,92707.55
2019-04-10T17:25:16.161Z,92710.16
2019-04-10T17:27:44.424Z,92717.44
2019-04-10T17:30:13.583Z,92714.83
2019-04-10T17:32:42.669Z,92711.80
2019-04-10T17:35:11.895Z,92715.15
2019-04-10T17:37:40.332Z,92714.09
2019-04-10T17:40:09.464Z,92710.92
2019-04-10T17:42:39.123Z,92710.41
2019-04-10T17:45:07.975Z,92710.41
2019-04-10T17:47:36.760Z,92718.34
2019-04-10T17:50:07.731Z,92719.08
2019-04-10T17:52:38.012Z,92715.83
2019-04-10T17:55:07.604Z,92715.66
2019-04-10T17:57:40.445Z,92718.26
2019-04-10T18:00:24.639Z,92714.58
2019-04-10T18:02:52.949Z,92718.83
2019-04-10T18:05:22.390Z,92723.57
2019-04-10T18:07:50.767Z,92724.83
2019-04-10T18:10:19.110Z,92724.94
2019-04-10T18:12:48.114Z,92724.63
2019-04-10T18:15:16.738Z,92726.08
2019-04-10T18:17:45.115Z,92733.36
2019-04-10T18:20:13.615Z,92739.92
2019-04-10T18:22:42.842Z,92732.05
2019-04-10T18:25:11.915Z,92737.23
2019-04-10T18:27:40.697Z,92740.63
2019-04-10T18:30:10.007Z,92748.51
2019-04-10T18:32:38.462Z,92748.07
2019-04-10T18:35:07.206Z,92748.07
2019-04-10T18:37:37.059Z,92759.93
2019-04-10T18:40:07.429Z,92765.43
2019-04-10T18:42:37.318Z,92769.30
2019-04-10T18:45:07.421Z,92774.07
2019-04-10T18:47:38.085Z,92775.00
2019-04-10T18:50:07.786Z,92780.55
2019-04-10T18:52:35.674Z,92783.12
2019-04-10T18:55:04.409Z,92779.25
2019-04-10T18:57:34.194Z,92783.74
2019-04-10T19:00:05.901Z,92785.79
2019-04-10T19:02:52.928Z,92785.73
2019-04-10T19:05:23.522Z,92786.28
2019-04-10T19:07:51.989Z,92786.85
2019-04-10T19:10:20.223Z,92798.81
2019-04-10T19:12:48.830Z,92801.43
2019-04-10T19:15:17.224Z,92801.19
2019-04-10T19:17:45.511Z,92799.12
2019-04-10T19:20:17.961Z,92803.78
2019-04-10T19:22:46.408Z,92803.78
2019-04-10T19:25:14.648Z,92804.02
2019-04-10T19:27:42.910Z,92804.54
2019-04-10T19:30:28.853Z,92802.98
2019-04-10T19:32:57.413Z,92805.36
2019-04-10T19:35:26.720Z,92805.16
2019-04-10T19:37:55.131Z,92806.72
2019-04-10T19:40:23.593Z,92806.47
2019-04-10T19:42:51.851Z,92805.71
2019-04-10T19:45:20.116Z,92812.20
2019-04-10T19:47:48.498Z,92812.25
2019-04-10T19:50:17.306Z,92813.02
2019-04-10T19:52:46.749Z,92815.14
2019-04-10T19:55:15.596Z,92812.77
2019-04-10T19:57:43.913Z,92813.56
2019-04-10T20:00:12.610Z,92819.55
2019-04-10T20:02:41.735Z,92820.62
2019-04-10T20:05:10.079Z,92820.31
2019-04-10T20:07:38.445Z,92828.91
2019-04-10T20:10:06.696Z,92830.27
2019-04-10T20:12:34.975Z,92822.86
2019-04-10T20:15:04.450Z,92823.97
2019-04-10T20:17:32.781Z,92825.77
2019-04-10T20:20:01.057Z,92826.52
2019-04-10T20:22:29.450Z,92823.58
2019-04-10T20:24:59.716Z,92825.95
2019-04-10T20:27:28.025Z,92824.16
2019-04-10T20:29:56.309Z,92824.71
2019-04-10T20:32:24.565Z,92825.28
2019-04-10T20:34:53.864Z,92821.63
2019-04-10T20:37:22.925Z,92826.64
2019-04-10T20:39:51.757Z,92820.37
2019-04-10T20:42:26.649Z,92822.94
2019-04-10T20:44:55.068Z,92827.70
2019-04-10T20:47:23.332Z,92827.97
2019-04-10T20:49:51.632Z,92827.48
2019-04-10T20:52:20.040Z,92828.29
2019-04-10T20:54:53.069Z,92829.66
2019-04-10T20:57:23.552Z,92832.53
2019-04-10T20:59:51.850Z,92833.03
2019-04-10T21:02:20.314Z,92819.90
2019-04-10T21:04:56.383Z,92833.65
2019-04-10T21:07:19.171Z,92839.08
2019-04-10T21:09:48.155Z,92840.14
2019-04-10T21:12:20.328Z,92837.77
2019-04-10T21:14:46.503Z,92835.16
2019-04-10T21:17:14.771Z,92834.91
2019-04-10T21:19:43.255Z,92837.52
2019-04-10T21:22:11.741Z,92840.38
2019-04-10T21:24:41.039Z,92839.08
2019-04-10T21:27:09.496Z,92837.01
2019-04-10T21:29:57.370Z,92837.05
2019-04-10T21:32:43.402Z,92833.95
2019-04-10T21:35:13.326Z,92835.01
2019-04-10T21:37:42.364Z,92832.16
2019-04-10T21:40:10.734Z,92835.33
2019-04-10T21:42:39.220Z,92825.12
2019-04-10T21:45:07.532Z,92825.62
2019-04-10T21:47:37.609Z,92828.29
2019-04-10T21:50:06.637Z,92828.29
2019-04-10T21:52:34.908Z,92832.98
2019-04-10T21:55:04.504Z,92827.05
2019-04-10T21:57:32.789Z,92828.41
2019-04-10T22:00:01.609Z,92837.00
2019-04-10T22:02:31.581Z,92837.66
2019-04-10T22:05:04.267Z,92839.70
2019-04-10T22:07:34.372Z,92841.12
2019-04-10T22:10:04.254Z,92840.20
2019-04-10T22:12:38.988Z,92841.75
2019-04-10T22:15:04.628Z,92849.77
2019-04-10T22:17:34.131Z,92843.80
2019-04-10T22:20:03.362Z,92846.73
2019-04-10T22:22:31.684Z,92842.07
2019-04-10T22:25:01.148Z,92844.48
2019-04-10T22:27:29.635Z,92851.87
2019-04-10T22:29:58.459Z,92847.21
2019-04-10T22:32:26.960Z,92841.69
2019-04-10T22:34:55.194Z,92849.02
2019-04-10T22:37:23.677Z,92845.61
2019-04-10T22:39:52.540Z,92840.43
2019-04-10T22:42:33.937Z,92843.05
2019-04-10T22:44:51.746Z,92846.72
2019-04-10T22:47:20.206Z,92845.42
2019-04-10T22:49:48.562Z,92842.80
2019-04-10T22:52:17.652Z,92844.12
2019-04-10T22:54:46.386Z,92842.56
2019-04-10T22:57:20.785Z,92839.99
2019-04-10T22:59:51.244Z,92841.23
2019-04-10T23:02:19.742Z,92835.77
2019-04-10T23:04:51.294Z,92839.99
2019-04-10T23:07:18.487Z,92837.06
2019-04-10T23:09:46.748Z,92834.72
2019-04-10T23:12:16.125Z,92836.89
2019-04-10T23:14:44.895Z,92833.21
2019-04-10T23:17:13.400Z,92830.10
2019-04-10T23:19:42.513Z,92830.55
2019-04-10T23:22:11.821Z,92825.33
2019-04-10T23:24:40.185Z,92824.92
2019-04-10T23:27:09.345Z,92823.81
2019-04-10T23:29:38.174Z,92833.70
2019-04-10T23:32:06.577Z,92829.34
2019-04-10T23:34:34.834Z,92829.05
2019-04-10T23:37:03.128Z,92828.03
2019-04-10T23:39:32.360Z,92837.45
2019-04-10T23:42:01.121Z,92839.56
2019-04-10T23:44:29.455Z,92836.89
2019-04-10T23:46:57.882Z,92838.25
2019-04-10T23:49:26.178Z,92837.00
2019-04-10T23:51:55.659Z,92834.88
2019-04-10T23:54:24.955Z,92838.81
2019-04-10T23:56:53.261Z,92838.81
2019-04-10T23:59:22.503Z,92837.26
